Time;durP1;ratioP1;P1;durP2;ratioP2;P2;SDS_P1;SDS_P2;PMS_P1;PMS_P2;Temp;Humidity;BMP_temperature;BMP_pressure;BME280_temperature;BME280_humidity;BME280_pressure;Samples;Min_cycle;Max_cycle;Signal;HPM_P1;HPM_P2
2022/01/10 00:00:46;;;;;;;;;;;22.70;49.80;;;;;;5120491;27;20009;-39
2022/01/10 00:03:13;;;;;;;;;;;22.70;49.70;;;;;;5098852;28;19955;-41
2022/01/10 00:05:40;;;;;;;;;;;22.60;49.70;;;;;;5118025;27;19929;-40
2022/01/10 00:08:08;;;;;;;;;;;22.70;49.70;;;;;;5117889;27;19923;-41
2022/01/10 00:10:35;;;;;;;;;;;22.70;49.70;;;;;;5135517;27;19923;-39
2022/01/10 00:13:02;;;;;;;;;;;22.70;49.70;;;;;;5117292;27;19928;-39
2022/01/10 00:15:29;;;;;;;;;;;22.70;49.70;;;;;;5118545;27;19924;-41
2022/01/10 00:17:56;;;;;;;;;;;22.70;49.70;;;;;;5116568;27;19927;-39
2022/01/10 00:20:23;;;;;;;;;;;22.70;49.70;;;;;;5118511;27;20272;-39
2022/01/10 00:22:51;;;;;;;;;;;22.70;49.70;;;;;;5113667;27;19949;-40
2022/01/10 00:25:20;;;;;;;;;;;22.70;49.70;;;;;;5119655;27;19928;-40
2022/01/10 00:27:49;;;;;;;;;;;22.70;49.70;;;;;;5117959;27;20002;-41
2022/01/10 00:30:16;;;;;;;;;;;22.70;49.70;;;;;;5117697;27;19949;-39
2022/01/10 00:32:44;;;;;;;;;;;22.70;49.70;;;;;;5117423;27;19923;-39
2022/01/10 00:35:12;;;;;;;;;;;22.70;49.70;;;;;;5117322;27;20279;-40
2022/01/10 00:37:42;;;;;;;;;;;22.70;49.60;;;;;;5117314;27;19930;-39
2022/01/10 00:40:10;;;;;;;;;;;22.70;49.70;;;;;;5118344;27;19959;-40
2022/01/10 00:42:37;;;;;;;;;;;22.70;49.60;;;;;;5121588;27;19924;-39
2022/01/10 00:45:13;;;;;;;;;;;22.70;49.60;;;;;;5132560;27;19933;-40
2022/01/10 00:47:40;;;;;;;;;;;22.70;49.60;;;;;;5127524;27;20398;-39
2022/01/10 00:50:07;;;;;;;;;;;22.70;49.60;;;;;;5115976;28;19923;-40
2022/01/10 00:52:34;;;;;;;;;;;22.70;49.60;;;;;;5116974;27;19961;-41
2022/01/10 00:55:01;;;;;;;;;;;22.60;49.50;;;;;;5115530;28;19973;-40
2022/01/10 00:57:28;;;;;;;;;;;22.60;49.50;;;;;;5117902;27;19958;-42
2022/01/10 00:59:55;;;;;;;;;;;22.60;49.50;;;;;;5098673;28;20660;-40
2022/01/10 01:02:25;;;;;;;;;;;22.60;49.50;;;;;;5115501;28;19931;-40
2022/01/10 01:04:54;;;;;;;;;;;22.60;49.50;;;;;;5116398;27;20011;-44
2022/01/10 01:07:21;;;;;;;;;;;22.60;49.50;;;;;;5116633;27;20006;-38
2022/01/10 01:09:57;;;;;;;;;;;22.60;49.50;;;;;;5116087;27;20431;-42
2022/01/10 01:15:32;;;;;;;;;;;22.60;49.50;;;;;;5036277;28;19976;-40
2022/01/10 01:25:51;;;;;;;;;;;22.60;49.50;;;;;;5051033;28;19959;-41
2022/01/10 01:28:20;;;;;;;;;;;22.60;49.50;;;;;;5049745;28;19998;-38
2022/01/10 01:30:48;;;;;;;;;;;22.60;49.40;;;;;;5049879;28;20377;-38
2022/01/10 01:33:18;;;;;;;;;;;22.60;49.40;;;;;;5050602;28;19928;-39
2022/01/10 01:35:45;;;;;;;;;;;22.60;49.40;;;;;;5048612;28;19980;-41
2022/01/10 01:38:13;;;;;;;;;;;22.60;49.40;;;;;;5050955;28;19991;-40
2022/01/10 01:40:42;;;;;;;;;;;22.60;49.50;;;;;;5049747;28;19925;-39
2022/01/10 01:43:10;;;;;;;;;;;22.60;49.40;;;;;;5032705;28;19967;-39
2022/01/10 01:45:36;;;;;;;;;;;22.60;49.40;;;;;;5067207;27;19923;-42
2022/01/10 01:48:04;;;;;;;;;;;22.60;49.40;;;;;;5133057;27;19976;-39
2022/01/10 01:50:31;;;;;;;;;;;22.60;49.40;;;;;;5132819;27;19924;-39
2022/01/10 01:52:59;;;;;;;;;;;22.60;49.40;;;;;;5117008;27;19970;-39
2022/01/10 01:55:26;;;;;;;;;;;22.60;49.30;;;;;;5117871;27;19964;-43
2022/01/10 01:57:53;;;;;;;;;;;22.60;49.30;;;;;;5115440;27;19969;-39
2022/01/10 02:00:22;;;;;;;;;;;22.50;49.30;;;;;;5114301;28;19930;-39
2022/01/10 02:02:50;;;;;;;;;;;22.60;50.00;;;;;;5115569;27;19959;-40
2022/01/10 02:05:17;;;;;;;;;;;22.50;49.30;;;;;;5127672;27;19999;-40
2022/01/10 02:07:45;;;;;;;;;;;22.50;49.30;;;;;;5119840;27;19931;-42
2022/01/10 02:10:12;;;;;;;;;;;22.50;49.30;;;;;;5116479;27;19955;-40
2022/01/10 02:12:39;;;;;;;;;;;22.50;49.30;;;;;;5114064;28;20010;-39
2022/01/10 02:15:06;;;;;;;;;;;22.50;49.30;;;;;;5114050;28;19927;-40
2022/01/10 02:17:36;;;;;;;;;;;22.50;49.30;;;;;;5124284;27;20010;-40
2022/01/10 02:20:04;;;;;;;;;;;22.50;49.30;;;;;;5125634;27;19923;-42
2022/01/10 02:22:30;;;;;;;;;;;22.50;49.20;;;;;;5120324;27;19959;-46
2022/01/10 02:24:57;;;;;;;;;;;22.50;49.30;;;;;;5124828;27;19951;-47
2022/01/10 02:27:25;;;;;;;;;;;22.50;49.20;;;;;;5114967;27;19949;-43
2022/01/10 02:29:52;;;;;;;;;;;22.50;49.20;;;;;;5114073;28;19924;-41
2022/01/10 02:32:20;;;;;;;;;;;22.50;49.30;;;;;;5113560;28;19977;-42
2022/01/10 02:34:47;;;;;;;;;;;22.50;49.20;;;;;;5116481;27;19932;-42
2022/01/10 02:37:33;;;;;;;;;;;22.50;49.30;;;;;;5116457;27;20248;-45
2022/01/10 02:40:03;;;;;;;;;;;22.50;49.20;;;;;;5116395;27;20338;-42
2022/01/10 02:42:30;;;;;;;;;;;22.50;49.20;;;;;;5116868;27;19949;-43
2022/01/10 02:44:57;;;;;;;;;;;22.50;49.20;;;;;;5130725;27;20379;-41
2022/01/10 02:47:27;;;;;;;;;;;22.50;49.20;;;;;;5096690;28;19928;-43
2022/01/10 02:49:54;;;;;;;;;;;22.50;49.20;;;;;;5116340;27;20336;-41
2022/01/10 02:52:21;;;;;;;;;;;22.50;49.20;;;;;;5113764;28;20044;-41
2022/01/10 02:54:48;;;;;;;;;;;22.50;49.80;;;;;;5115017;28;19923;-39
2022/01/10 02:57:15;;;;;;;;;;;22.50;49.20;;;;;;5114544;28;19971;-40
2022/01/10 02:59:42;;;;;;;;;;;22.50;49.20;;;;;;5115895;27;19970;-42
2022/01/10 03:02:10;;;;;;;;;;;22.50;49.20;;;;;;5115339;27;19928;-48
2022/01/10 03:04:38;;;;;;;;;;;22.50;49.10;;;;;;5114513;28;19924;-42
2022/01/10 03:07:05;;;;;;;;;;;22.40;49.10;;;;;;5115664;27;20006;-39
2022/01/10 03:09:32;;;;;;;;;;;22.50;49.20;;;;;;5129472;27;19924;-45
2022/01/10 03:11:59;;;;;;;;;;;22.40;49.10;;;;;;5117342;27;19967;-45
2022/01/10 03:14:26;;;;;;;;;;;22.40;49.10;;;;;;5124987;28;20310;-44
2022/01/10 03:16:53;;;;;;;;;;;22.40;49.10;;;;;;5120805;28;19931;-40
2022/01/10 03:19:20;;;;;;;;;;;22.40;49.10;;;;;;5115446;28;19931;-40
2022/01/10 03:21:47;;;;;;;;;;;22.40;49.10;;;;;;5123157;28;19923;-42
2022/01/10 03:24:14;;;;;;;;;;;22.40;49.10;;;;;;5122124;28;19931;-42
2022/01/10 03:26:41;;;;;;;;;;;22.40;49.10;;;;;;5114457;28;20371;-45
2022/01/10 03:29:08;;;;;;;;;;;22.40;49.10;;;;;;5112972;28;19924;-42
2022/01/10 03:31:36;;;;;;;;;;;22.40;49.10;;;;;;5113298;28;19992;-40
2022/01/10 03:34:10;;;;;;;;;;;22.40;49.10;;;;;;5114386;28;20442;-40
2022/01/10 03:36:37;;;;;;;;;;;22.40;49.10;;;;;;5114235;28;19928;-39
2022/01/10 03:39:04;;;;;;;;;;;22.40;49.10;;;;;;5115864;28;19924;-40
2022/01/10 03:41:31;;;;;;;;;;;22.40;49.10;;;;;;5112926;28;19939;-41
2022/01/10 03:43:58;;;;;;;;;;;22.40;49.10;;;;;;5115681;28;19974;-42
2022/01/10 03:46:27;;;;;;;;;;;22.40;49.70;;;;;;5114655;28;20281;-40
2022/01/10 03:48:54;;;;;;;;;;;22.40;49.10;;;;;;5113087;28;19931;-41
2022/01/10 03:51:21;;;;;;;;;;;22.40;49.10;;;;;;5115235;28;19924;-41
2022/01/10 03:53:48;;;;;;;;;;;22.40;49.10;;;;;;5112958;28;19924;-39
2022/01/10 03:56:15;;;;;;;;;;;22.40;49.10;;;;;;5114225;28;19924;-40
2022/01/10 03:58:42;;;;;;;;;;;22.40;49.10;;;;;;5115445;28;19994;-41
2022/01/10 04:01:09;;;;;;;;;;;22.40;49.00;;;;;;5113654;28;19923;-39
2022/01/10 04:03:38;;;;;;;;;;;22.40;49.10;;;;;;5114250;28;19923;-42
2022/01/10 04:06:05;;;;;;;;;;;22.40;49.10;;;;;;5112967;28;20315;-42
2022/01/10 04:08:33;;;;;;;;;;;22.40;49.00;;;;;;5114488;28;19938;-46
2022/01/10 04:11:00;;;;;;;;;;;22.40;49.10;;;;;;5114697;28;19967;-43
2022/01/10 04:13:27;;;;;;;;;;;22.30;48.90;;;;;;5115136;28;20040;-42
2022/01/10 04:15:54;;;;;;;;;;;22.30;48.90;;;;;;5125530;28;20003;-41
2022/01/10 04:18:21;;;;;;;;;;;22.30;48.90;;;;;;5121372;28;20294;-41
2022/01/10 04:20:48;;;;;;;;;;;22.30;48.90;;;;;;5123568;27;19974;-43
2022/01/10 04:23:16;;;;;;;;;;;22.40;49.00;;;;;;5133203;27;20363;-43
2022/01/10 04:25:43;;;;;;;;;;;22.30;48.90;;;;;;5122594;27;19978;-43
2022/01/10 04:28:10;;;;;;;;;;;22.30;48.90;;;;;;5097994;28;19927;-40
2022/01/10 04:30:37;;;;;;;;;;;22.30;48.90;;;;;;5118666;27;20007;-45
2022/01/10 04:33:04;;;;;;;;;;;22.30;48.90;;;;;;5117129;27;19931;-44
2022/01/10 04:35:32;;;;;;;;;;;22.30;48.90;;;;;;5117203;27;19924;-43
2022/01/10 04:37:59;;;;;;;;;;;22.30;48.90;;;;;;5118219;27;20399;-40
2022/01/10 04:40:27;;;;;;;;;;;22.30;48.90;;;;;;5117114;27;19924;-40
2022/01/10 04:42:54;;;;;;;;;;;22.30;48.90;;;;;;5118407;27;19959;-42
2022/01/10 04:45:21;;;;;;;;;;;22.30;48.90;;;;;;5117481;27;19928;-43
2022/01/10 04:47:48;;;;;;;;;;;22.30;48.90;;;;;;5116047;27;19967;-40
2022/01/10 04:52:48;;;;;;;;;;;22.30;48.90;;;;;;5133897;27;19986;-42
2022/01/10 04:55:16;;;;;;;;;;;22.30;48.90;;;;;;5115793;28;20003;-42
2022/01/10 04:57:43;;;;;;;;;;;22.30;48.90;;;;;;5115965;27;20015;-40
2022/01/10 05:00:12;;;;;;;;;;;22.30;48.90;;;;;;5115515;28;19972;-41
2022/01/10 05:02:40;;;;;;;;;;;22.30;48.90;;;;;;5116898;27;20448;-41
2022/01/10 05:05:11;;;;;;;;;;;22.30;48.90;;;;;;5116474;27;19949;-42
2022/01/10 05:07:38;;;;;;;;;;;22.30;48.90;;;;;;5115989;27;19924;-41
2022/01/10 05:10:05;;;;;;;;;;;22.30;48.90;;;;;;5130842;27;19973;-40
2022/01/10 05:12:32;;;;;;;;;;;22.30;48.90;;;;;;5121995;27;20014;-40
2022/01/10 05:14:59;;;;;;;;;;;22.20;48.80;;;;;;5116313;27;20011;-39
2022/01/10 05:17:26;;;;;;;;;;;22.30;48.90;;;;;;5115129;28;19924;-41
2022/01/10 05:19:53;;;;;;;;;;;22.20;48.80;;;;;;5115110;28;19967;-43
2022/01/10 05:22:20;;;;;;;;;;;22.20;48.70;;;;;;5116098;27;19924;-41
2022/01/10 05:24:46;;;;;;;;;;;22.20;48.70;;;;;;5116284;27;19927;-45
2022/01/10 05:27:13;;;;;;;;;;;22.20;48.80;;;;;;5117555;27;20395;-48
2022/01/10 05:29:40;;;;;;;;;;;22.20;48.80;;;;;;5121138;27;19986;-46
2022/01/10 05:32:08;;;;;;;;;;;22.20;48.80;;;;;;5109994;28;20366;-48
2022/01/10 05:34:35;;;;;;;;;;;22.20;48.80;;;;;;5115154;28;19954;-46
2022/01/10 05:37:02;;;;;;;;;;;22.20;48.80;;;;;;5116113;27;19924;-47
2022/01/10 05:39:29;;;;;;;;;;;22.20;48.80;;;;;;5114706;28;20002;-48
2022/01/10 05:41:56;;;;;;;;;;;22.20;48.70;;;;;;5117515;27;19963;-44
2022/01/10 05:44:23;;;;;;;;;;;22.20;48.80;;;;;;5116479;27;19924;-40
2022/01/10 05:46:51;;;;;;;;;;;22.20;48.70;;;;;;5114824;28;19927;-41
2022/01/10 05:49:25;;;;;;;;;;;22.20;48.70;;;;;;5115398;27;19924;-47
2022/01/10 05:51:52;;;;;;;;;;;22.20;48.70;;;;;;5115278;27;19977;-41
2022/01/10 05:54:19;;;;;;;;;;;22.20;48.70;;;;;;5117004;27;19927;-39
2022/01/10 05:56:45;;;;;;;;;;;22.20;48.70;;;;;;5114919;28;19923;-43
2022/01/10 05:59:12;;;;;;;;;;;22.20;48.70;;;;;;5117230;27;19986;-41
2022/01/10 06:01:42;;;;;;;;;;;22.20;49.00;;;;;;5114468;28;19930;-41
2022/01/10 06:04:10;;;;;;;;;;;22.20;48.70;;;;;;5116204;27;20375;-42
2022/01/10 06:06:37;;;;;;;;;;;22.20;48.70;;;;;;5117897;27;20414;-38
2022/01/10 06:09:04;;;;;;;;;;;22.20;48.70;;;;;;5115259;27;19992;-40
2022/01/10 06:11:31;;;;;;;;;;;22.20;48.70;;;;;;5115135;27;20007;-41
2022/01/10 06:13:58;;;;;;;;;;;22.20;48.70;;;;;;5115213;27;19967;-41
2022/01/10 06:16:25;;;;;;;;;;;22.20;48.70;;;;;;5115080;27;20015;-39
2022/01/10 06:18:52;;;;;;;;;;;22.20;48.70;;;;;;5094145;28;20329;-38
2022/01/10 06:21:23;;;;;;;;;;;22.20;48.70;;;;;;5089009;28;19928;-40
2022/01/10 06:23:50;;;;;;;;;;;22.20;48.70;;;;;;5093543;28;19928;-42
2022/01/10 06:26:17;;;;;;;;;;;22.20;48.70;;;;;;5095584;28;19999;-46
2022/01/10 06:28:44;;;;;;;;;;;22.20;48.70;;;;;;5094888;28;19927;-43
2022/01/10 06:31:13;;;;;;;;;;;22.20;48.70;;;;;;5092426;28;19928;-39
2022/01/10 06:33:40;;;;;;;;;;;22.10;48.60;;;;;;5093509;28;19928;-39
2022/01/10 06:36:09;;;;;;;;;;;22.20;48.70;;;;;;5094879;28;19924;-41
2022/01/10 06:38:36;;;;;;;;;;;22.20;48.70;;;;;;5095758;28;19924;-41
2022/01/10 06:41:03;;;;;;;;;;;22.20;48.70;;;;;;5095077;28;20022;-40
2022/01/10 06:43:30;;;;;;;;;;;22.10;48.60;;;;;;5111566;28;19984;-42
2022/01/10 06:45:57;;;;;;;;;;;22.10;48.60;;;;;;5095664;28;19924;-39
2022/01/10 06:48:24;;;;;;;;;;;22.10;48.60;;;;;;5076414;28;19924;-41
2022/01/10 06:50:51;;;;;;;;;;;22.10;48.60;;;;;;5093213;28;20019;-42
2022/01/10 06:53:18;;;;;;;;;;;22.10;48.60;;;;;;5092822;28;19969;-41
2022/01/10 06:55:45;;;;;;;;;;;22.10;48.60;;;;;;5110423;28;20410;-40
2022/01/10 06:58:13;;;;;;;;;;;22.10;48.60;;;;;;5091812;28;19959;-41
2022/01/10 07:00:41;;;;;;;;;;;22.10;48.60;;;;;;5112170;28;19970;-40
2022/01/10 07:03:08;;;;;;;;;;;22.10;48.60;;;;;;5097079;28;20375;-44
2022/01/10 07:05:36;;;;;;;;;;;22.10;48.60;;;;;;5095377;28;19931;-39
2022/01/10 07:08:03;;;;;;;;;;;22.10;48.60;;;;;;5094157;28;19973;-41
2022/01/10 07:10:30;;;;;;;;;;;22.10;48.60;;;;;;5094366;28;20111;-41
2022/01/10 07:12:58;;;;;;;;;;;22.10;48.60;;;;;;5094877;28;19954;-42
2022/01/10 07:15:26;;;;;;;;;;;22.10;48.50;;;;;;5094422;28;19942;-41
2022/01/10 07:17:53;;;;;;;;;;;22.10;48.50;;;;;;5095222;28;19967;-39
2022/01/10 07:20:21;;;;;;;;;;;22.10;48.50;;;;;;5113729;28;19937;-40
2022/01/10 07:22:48;;;;;;;;;;;22.10;48.50;;;;;;5115162;28;19950;-43
2022/01/10 07:25:15;;;;;;;;;;;22.10;48.50;;;;;;5113954;28;20003;-41
2022/01/10 07:27:42;;;;;;;;;;;22.10;48.50;;;;;;5113138;28;19923;-42
2022/01/10 07:30:09;;;;;;;;;;;22.10;48.50;;;;;;5112890;28;20426;-41
2022/01/10 07:32:36;;;;;;;;;;;22.10;48.50;;;;;;5114247;28;20448;-41
2022/01/10 07:35:03;;;;;;;;;;;22.10;48.50;;;;;;5114468;28;19959;-41
2022/01/10 07:37:30;;;;;;;;;;;22.10;48.60;;;;;;5113160;28;20325;-40
2022/01/10 07:39:57;;;;;;;;;;;22.10;48.50;;;;;;5113006;28;19966;-40
2022/01/10 07:42:24;;;;;;;;;;;22.10;48.50;;;;;;5097642;28;19932;-46
2022/01/10 07:44:51;;;;;;;;;;;22.10;48.50;;;;;;5114459;28;20311;-41
2022/01/10 07:47:18;;;;;;;;;;;22.10;48.50;;;;;;5113945;28;20015;-40
2022/01/10 07:49:45;;;;;;;;;;;22.10;48.50;;;;;;5113946;28;19975;-41
2022/01/10 07:52:13;;;;;;;;;;;22.10;48.40;;;;;;5112880;28;19927;-43
2022/01/10 07:54:40;;;;;;;;;;;22.10;48.40;;;;;;5111426;27;19986;-44
2022/01/10 07:57:07;;;;;;;;;;;22.10;48.40;;;;;;5120230;27;19977;-43
2022/01/10 07:59:33;;;;;;;;;;;22.10;48.40;;;;;;5119113;27;19959;-42
2022/01/10 08:02:00;;;;;;;;;;;22.10;48.40;;;;;;5118987;27;19928;-41
2022/01/10 08:04:28;;;;;;;;;;;22.10;48.40;;;;;;5129768;27;19923;-44
2022/01/10 08:06:55;;;;;;;;;;;22.10;48.40;;;;;;5123936;27;19924;-43
2022/01/10 08:09:22;;;;;;;;;;;22.10;48.40;;;;;;5118008;27;19976;-41
2022/01/10 08:11:49;;;;;;;;;;;22.10;48.30;;;;;;5116096;28;20010;-41
2022/01/10 08:14:16;;;;;;;;;;;22.10;48.30;;;;;;5124875;27;19969;-40
2022/01/10 08:16:43;;;;;;;;;;;22.10;48.30;;;;;;5128145;27;19924;-42
2022/01/10 08:19:10;;;;;;;;;;;22.10;48.30;;;;;;5117320;27;19992;-43
2022/01/10 08:21:37;;;;;;;;;;;22.10;48.20;;;;;;5118909;27;19930;-39
2022/01/10 08:24:04;;;;;;;;;;;22.20;48.30;;;;;;5119968;27;19924;-42
2022/01/10 08:26:31;;;;;;;;;;;22.10;48.20;;;;;;5117894;27;19924;-41
2022/01/10 08:28:58;;;;;;;;;;;22.20;48.20;;;;;;5117541;27;19923;-40
2022/01/10 08:31:25;;;;;;;;;;;22.20;48.20;;;;;;5116334;28;19986;-42
2022/01/10 08:33:52;;;;;;;;;;;22.20;48.20;;;;;;5099303;27;20276;-41
2022/01/10 08:36:19;;;;;;;;;;;22.20;48.20;;;;;;5115988;28;19924;-42
2022/01/10 08:38:46;;;;;;;;;;;22.20;48.20;;;;;;5116881;28;20354;-43
2022/01/10 08:41:13;;;;;;;;;;;22.20;48.20;;;;;;5117794;27;20295;-42
2022/01/10 08:43:40;;;;;;;;;;;22.20;48.10;;;;;;5117305;27;19928;-42
2022/01/10 08:46:07;;;;;;;;;;;22.20;48.10;;;;;;5132204;27;19924;-41
2022/01/10 08:48:48;;;;;;;;;;;22.20;48.10;;;;;;5116081;28;19992;-42
2022/01/10 08:51:16;;;;;;;;;;;22.20;48.00;;;;;;5118189;27;19963;-42
2022/01/10 08:53:43;;;;;;;;;;;22.20;48.00;;;;;;5116819;27;20019;-41
2022/01/10 08:56:10;;;;;;;;;;;22.20;48.00;;;;;;5115416;28;19966;-42
2022/01/10 08:58:37;;;;;;;;;;;22.30;48.00;;;;;;5119186;27;19930;-42
2022/01/10 09:01:05;;;;;;;;;;;22.30;48.00;;;;;;5100071;28;20290;-41
2022/01/10 09:03:33;;;;;;;;;;;22.30;48.00;;;;;;5130048;27;19924;-40
2022/01/10 09:06:01;;;;;;;;;;;22.30;47.90;;;;;;5122572;27;19934;-40
2022/01/10 09:08:31;;;;;;;;;;;22.30;47.90;;;;;;5118303;27;19924;-41
2022/01/10 09:10:59;;;;;;;;;;;22.40;47.90;;;;;;5117557;27;19971;-40
2022/01/10 09:13:26;;;;;;;;;;;22.40;47.90;;;;;;5115156;28;19923;-41
2022/01/10 09:15:53;;;;;;;;;;;22.40;47.90;;;;;;5115442;28;20279;-43
2022/01/10 09:18:20;;;;;;;;;;;22.40;47.80;;;;;;5116330;27;19924;-40
2022/01/10 09:20:47;;;;;;;;;;;22.40;47.80;;;;;;5115425;28;19923;-49
2022/01/10 09:23:14;;;;;;;;;;;22.40;47.80;;;;;;5116093;27;20007;-40
2022/01/10 09:25:42;;;;;;;;;;;22.40;47.80;;;;;;5115968;27;20440;-42
2022/01/10 09:28:09;;;;;;;;;;;22.40;47.70;;;;;;5114936;28;19975;-49
2022/01/10 09:30:36;;;;;;;;;;;22.40;47.70;;;;;;5099727;27;20299;-43
2022/01/10 09:33:03;;;;;;;;;;;22.40;47.70;;;;;;5132648;27;19969;-46
2022/01/10 09:35:30;;;;;;;;;;;22.40;47.70;;;;;;5116091;27;19923;-46
2022/01/10 09:37:57;;;;;;;;;;;22.40;47.60;;;;;;5116800;27;19923;-40
2022/01/10 09:40:24;;;;;;;;;;;22.50;47.70;;;;;;5133194;27;19980;-39
2022/01/10 09:42:51;;;;;;;;;;;22.40;48.20;;;;;;5116085;27;19928;-39
2022/01/10 09:45:18;;;;;;;;;;;22.50;47.60;;;;;;5116831;27;19963;-39
2022/01/10 09:47:45;;;;;;;;;;;22.50;47.60;;;;;;5114757;28;19931;-41
2022/01/10 09:50:16;;;;;;;;;;;22.50;47.60;;;;;;5131195;27;20333;-40
2022/01/10 09:52:45;;;;;;;;;;;22.50;47.60;;;;;;5118764;27;19970;-40
2022/01/10 09:55:12;;;;;;;;;;;22.50;47.60;;;;;;5117086;27;19924;-42
2022/01/10 09:57:39;;;;;;;;;;;22.50;47.50;;;;;;5128077;27;19972;-39
2022/01/10 10:00:09;;;;;;;;;;;22.50;47.50;;;;;;5120871;27;19931;-39
2022/01/10 10:02:37;;;;;;;;;;;22.50;47.50;;;;;;5114207;28;19924;-40
2022/01/10 10:05:06;;;;;;;;;;;22.50;47.60;;;;;;5115545;27;19967;-41
2022/01/10 10:07:38;;;;;;;;;;;22.50;47.40;;;;;;5126620;27;19930;-40
2022/01/10 10:10:11;;;;;;;;;;;22.60;47.50;;;;;;5120657;27;19924;-39
2022/01/10 10:12:42;;;;;;;;;;;22.60;47.40;;;;;;5115806;27;19924;-39
2022/01/10 10:15:11;;;;;;;;;;;22.60;47.40;;;;;;5115252;27;19977;-41
2022/01/10 10:17:39;;;;;;;;;;;22.60;47.40;;;;;;5124370;27;19923;-40
2022/01/10 10:20:17;;;;;;;;;;;22.60;47.40;;;;;;5131526;27;19966;-41
2022/01/10 10:23:04;;;;;;;;;;;22.60;47.40;;;;;;5114175;28;20006;-39
2022/01/10 10:25:33;;;;;;;;;;;22.60;47.40;;;;;;5124156;27;19976;-39
2022/01/10 10:28:02;;;;;;;;;;;22.70;47.40;;;;;;5122147;27;19924;-41
2022/01/10 10:30:30;;;;;;;;;;;22.70;47.30;;;;;;5123151;27;19924;-41
2022/01/10 10:33:12;;;;;;;;;;;22.70;47.30;;;;;;5122836;27;19923;-41
2022/01/10 10:35:41;;;;;;;;;;;22.70;47.20;;;;;;5115960;27;20044;-39
2022/01/10 10:38:08;;;;;;;;;;;22.70;47.20;;;;;;5124029;27;20389;-39
2022/01/10 10:40:39;;;;;;;;;;;22.70;47.10;;;;;;5105851;28;19923;-41
2022/01/10 10:43:07;;;;;;;;;;;22.70;47.10;;;;;;5096646;28;19931;-41
2022/01/10 10:45:34;;;;;;;;;;;22.70;47.10;;;;;;5113599;27;20005;-42
2022/01/10 10:48:06;;;;;;;;;;;22.70;47.10;;;;;;5114950;27;20351;-43
2022/01/10 10:50:43;;;;;;;;;;;22.70;47.00;;;;;;5116021;27;19930;-41
2022/01/10 10:53:13;;;;;;;;;;;22.70;47.00;;;;;;5113314;28;19966;-40
2022/01/10 10:55:44;;;;;;;;;;;22.70;47.00;;;;;;5116236;27;20354;-44
2022/01/10 10:58:12;;;;;;;;;;;22.70;47.60;;;;;;5118055;27;20360;-41
2022/01/10 11:00:39;;;;;;;;;;;22.70;47.00;;;;;;5128171;27;19924;-42
2022/01/10 11:03:09;;;;;;;;;;;22.70;47.00;;;;;;5114824;28;19951;-42
2022/01/10 11:05:36;;;;;;;;;;;22.70;47.00;;;;;;5115023;27;19924;-39
2022/01/10 11:08:04;;;;;;;;;;;22.80;47.10;;;;;;5113261;28;19977;-41
2022/01/10 11:10:31;;;;;;;;;;;22.80;47.00;;;;;;5115764;28;20390;-40
2022/01/10 11:12:59;;;;;;;;;;;22.80;47.00;;;;;;5114343;28;20029;-40
2022/01/10 11:15:26;;;;;;;;;;;22.80;47.00;;;;;;5113570;28;20355;-39
2022/01/10 11:17:53;;;;;;;;;;;22.80;47.00;;;;;;5113221;28;20064;-39
2022/01/10 11:20:22;;;;;;;;;;;22.80;47.00;;;;;;5113356;28;20011;-44
2022/01/10 11:22:50;;;;;;;;;;;22.80;47.10;;;;;;5133697;28;19955;-41
2022/01/10 11:25:20;;;;;;;;;;;22.80;47.00;;;;;;5114870;28;20333;-39
2022/01/10 11:27:47;;;;;;;;;;;22.80;47.10;;;;;;5115233;28;19970;-40
2022/01/10 11:30:32;;;;;;;;;;;22.80;47.10;;;;;;5113609;28;20367;-39
2022/01/10 11:33:03;;;;;;;;;;;22.80;47.10;;;;;;5135959;27;19931;-42
2022/01/10 11:35:51;;;;;;;;;;;22.80;47.10;;;;;;5118478;27;20360;-39
2022/01/10 11:38:29;;;;;;;;;;;22.80;47.10;;;;;;5117784;28;19931;-41
2022/01/10 11:41:02;;;;;;;;;;;22.70;47.10;;;;;;5117252;28;19923;-41
2022/01/10 11:43:34;;;;;;;;;;;22.80;47.20;;;;;;5118876;27;20022;-39
2022/01/10 11:46:26;;;;;;;;;;;22.80;47.20;;;;;;5119062;27;19928;-41
2022/01/10 11:48:54;;;;;;;;;;;22.80;47.10;;;;;;5117802;28;19938;-40
2022/01/10 11:51:23;;;;;;;;;;;22.80;47.20;;;;;;5135873;27;19934;-42
2022/01/10 11:53:52;;;;;;;;;;;22.80;47.20;;;;;;5119293;27;20010;-40
2022/01/10 11:56:27;;;;;;;;;;;22.80;47.20;;;;;;5098985;28;19924;-45
2022/01/10 11:59:07;;;;;;;;;;;22.80;47.20;;;;;;5117119;27;20370;-39
2022/01/10 12:01:35;;;;;;;;;;;22.80;47.20;;;;;;5098978;28;19928;-42
2022/01/10 12:04:02;;;;;;;;;;;22.80;47.20;;;;;;5134853;27;19924;-40
2022/01/10 12:06:30;;;;;;;;;;;22.80;47.20;;;;;;5116870;27;19927;-45
2022/01/10 12:08:57;;;;;;;;;;;22.80;47.20;;;;;;5119358;27;19953;-39
2022/01/10 12:11:25;;;;;;;;;;;22.80;47.20;;;;;;5109153;28;19927;-44
2022/01/10 12:13:54;;;;;;;;;;;22.80;47.20;;;;;;5117675;27;19924;-39
2022/01/10 12:16:21;;;;;;;;;;;22.80;47.20;;;;;;5117750;28;19928;-38
2022/01/10 12:18:48;;;;;;;;;;;22.70;47.20;;;;;;5111584;27;19928;-42
2022/01/10 12:21:16;;;;;;;;;;;22.80;47.30;;;;;;5095821;28;20058;-40
2022/01/10 12:23:44;;;;;;;;;;;22.70;47.20;;;;;;5098191;28;19932;-41
2022/01/10 12:26:11;;;;;;;;;;;22.80;47.30;;;;;;5108071;28;20074;-40
2022/01/10 12:28:38;;;;;;;;;;;22.80;47.30;;;;;;5104270;28;19924;-40
2022/01/10 12:31:06;;;;;;;;;;;22.80;47.30;;;;;;5104592;28;19923;-42
2022/01/10 12:33:34;;;;;;;;;;;22.80;47.30;;;;;;5105937;28;20322;-41
2022/01/10 12:36:05;;;;;;;;;;;22.80;47.30;;;;;;5079234;28;19931;-39
2022/01/10 12:38:32;;;;;;;;;;;22.80;47.30;;;;;;5096271;28;20452;-48
2022/01/10 12:40:59;;;;;;;;;;;22.70;47.20;;;;;;5095043;28;19970;-46
2022/01/10 12:43:26;;;;;;;;;;;22.80;47.40;;;;;;5098022;28;19962;-40
2022/01/10 12:45:53;;;;;;;;;;;22.80;47.40;;;;;;5097114;28;20481;-40
2022/01/10 12:48:23;;;;;;;;;;;22.80;47.30;;;;;;5097761;28;19938;-40
2022/01/10 12:50:54;;;;;;;;;;;22.80;47.40;;;;;;5095600;28;19960;-40
2022/01/10 12:53:21;;;;;;;;;;;22.80;47.40;;;;;;5098999;28;20377;-41
2022/01/10 12:55:48;;;;;;;;;;;22.80;47.40;;;;;;5097439;28;19924;-41
2022/01/10 12:58:15;;;;;;;;;;;22.80;47.40;;;;;;5113093;28;19974;-43
2022/01/10 13:00:44;;;;;;;;;;;22.80;47.40;;;;;;5096783;28;19986;-42
2022/01/10 13:03:11;;;;;;;;;;;22.70;47.40;;;;;;5095329;28;20268;-45
2022/01/10 13:05:38;;;;;;;;;;;22.80;47.40;;;;;;5095362;28;19924;-43
2022/01/10 13:08:06;;;;;;;;;;;22.70;47.40;;;;;;5096596;28;19924;-44
2022/01/10 13:10:35;;;;;;;;;;;22.80;47.50;;;;;;5096191;28;20333;-41
2022/01/10 13:13:03;;;;;;;;;;;22.80;47.40;;;;;;5111267;28;19966;-44
2022/01/10 13:15:33;;;;;;;;;;;22.70;47.40;;;;;;5099062;28;20291;-41
2022/01/10 13:18:01;;;;;;;;;;;22.80;47.50;;;;;;5096045;28;19967;-40
2022/01/10 13:20:29;;;;;;;;;;;22.80;47.50;;;;;;5115138;27;19924;-40
2022/01/10 13:23:02;;;;;;;;;;;22.80;47.50;;;;;;5116472;27;19923;-38
2022/01/10 13:25:34;;;;;;;;;;;22.80;47.50;;;;;;5116621;27;19928;-40
2022/01/10 13:28:04;;;;;;;;;;;22.80;47.50;;;;;;5118650;27;20409;-41
2022/01/10 13:30:31;;;;;;;;;;;22.80;47.50;;;;;;5115065;28;19931;-41
2022/01/10 13:33:00;;;;;;;;;;;22.70;47.50;;;;;;5100534;28;20429;-44
2022/01/10 13:35:29;;;;;;;;;;;22.80;47.60;;;;;;5116984;27;19923;-41
2022/01/10 13:38:01;;;;;;;;;;;22.70;47.50;;;;;;5116476;27;20327;-39
2022/01/10 13:40:30;;;;;;;;;;;22.70;47.50;;;;;;5117311;27;19989;-40
2022/01/10 13:43:04;;;;;;;;;;;22.70;47.60;;;;;;5126083;27;20387;-42
2022/01/10 13:45:42;;;;;;;;;;;22.70;47.60;;;;;;5124278;27;20315;-42
2022/01/10 13:48:16;;;;;;;;;;;22.80;47.60;;;;;;5099173;28;19928;-41
2022/01/10 13:50:45;;;;;;;;;;;22.80;47.60;;;;;;5115923;27;20010;-43
2022/01/10 13:53:17;;;;;;;;;;;22.80;47.60;;;;;;5113455;28;19927;-40
2022/01/10 13:55:46;;;;;;;;;;;22.70;47.60;;;;;;5116716;27;19931;-39
2022/01/10 13:58:27;;;;;;;;;;;22.80;47.60;;;;;;5117213;27;20336;-40
2022/01/10 14:00:58;;;;;;;;;;;22.80;47.60;;;;;;5114775;27;19924;-40
2022/01/10 14:03:28;;;;;;;;;;;22.80;47.70;;;;;;5125336;27;20324;-41
2022/01/10 14:06:09;;;;;;;;;;;22.80;47.60;;;;;;5125068;27;19973;-41
2022/01/10 14:08:37;;;;;;;;;;;22.80;47.70;;;;;;5114127;28;19969;-42
2022/01/10 14:11:05;;;;;;;;;;;22.80;48.30;;;;;;5115535;27;19927;-41
2022/01/10 14:13:33;;;;;;;;;;;22.80;47.70;;;;;;5121999;27;19927;-40
2022/01/10 14:16:00;;;;;;;;;;;22.80;47.70;;;;;;5125842;27;19923;-42
2022/01/10 14:18:28;;;;;;;;;;;22.80;47.60;;;;;;5094221;28;19930;-40
2022/01/10 14:20:55;;;;;;;;;;;22.80;47.60;;;;;;5094278;28;19923;-45
2022/01/10 14:23:25;;;;;;;;;;;22.80;47.60;;;;;;5094655;28;19974;-43
2022/01/10 14:25:53;;;;;;;;;;;22.80;47.60;;;;;;5094786;28;20365;-41
2022/01/10 14:28:20;;;;;;;;;;;22.80;47.70;;;;;;5096153;28;20002;-41
2022/01/10 14:30:47;;;;;;;;;;;22.80;47.70;;;;;;5093615;28;19928;-41
2022/01/10 14:33:15;;;;;;;;;;;22.80;47.70;;;;;;5094471;28;19978;-41
2022/01/10 14:35:42;;;;;;;;;;;22.80;47.70;;;;;;5093330;28;19987;-44